createdAt,value
2017-10-10T00:01:39.053Z,77.27
2017-10-10T00:04:06.536Z,66.53
2017-10-10T00:06:34.010Z,85.10
2017-10-10T00:09:01.473Z,76.07
2017-10-10T00:11:28.940Z,77.30
2017-10-10T00:13:56.402Z,87.33
2017-10-10T00:16:23.880Z,69.33
2017-10-10T00:18:52.213Z,64.77
2017-10-10T00:21:21.367Z,68.50
2017-10-10T00:23:48.872Z,66.73
2017-10-10T00:26:16.330Z,71.30
2017-10-10T00:28:43.778Z,60.30
2017-10-10T00:31:11.277Z,66.57
2017-10-10T00:33:38.737Z,68.40
2017-10-10T00:36:06.229Z,77.23
2017-10-10T00:38:33.694Z,63.80
2017-10-10T00:41:01.173Z,65.47
2017-10-10T00:43:28.630Z,58.60
2017-10-10T00:45:56.881Z,59.67
2017-10-10T00:48:24.342Z,57.37
2017-10-10T00:50:51.816Z,46.60
2017-10-10T00:53:19.293Z,44.83
2017-10-10T00:55:47.154Z,50.47
2017-10-10T00:58:15.638Z,49.73
2017-10-10T01:00:43.877Z,42.10
2017-10-10T01:03:11.358Z,52.93
2017-10-10T01:05:38.846Z,44.93
2017-10-10T01:08:06.313Z,45.43
2017-10-10T01:10:33.905Z,43.67
2017-10-10T01:13:01.390Z,40.73
2017-10-10T01:15:28.846Z,46.93
2017-10-10T01:17:56.313Z,43.40
2017-10-10T01:20:23.793Z,40.60
2017-10-10T01:22:52.705Z,39.83
2017-10-10T01:25:20.178Z,42.30
2017-10-10T01:27:47.640Z,53.03
2017-10-10T01:30:15.118Z,41.87
2017-10-10T01:32:42.573Z,46.80
2017-10-10T01:35:10.153Z,50.03
2017-10-10T01:37:37.606Z,40.63
2017-10-10T01:40:05.067Z,38.70
2017-10-10T01:42:33.322Z,55.90
2017-10-10T01:45:00.878Z,50.93
2017-10-10T01:47:28.326Z,39.17
2017-10-10T01:49:55.812Z,41.83
2017-10-10T01:52:23.286Z,38.83
2017-10-10T01:54:52.434Z,43.23
2017-10-10T01:57:19.913Z,41.37
2017-10-10T01:59:47.376Z,44.03
2017-10-10T02:02:14.868Z,37.90
2017-10-10T02:04:42.325Z,41.33
2017-10-10T02:07:09.813Z,44.17
2017-10-10T02:09:37.369Z,43.70
2017-10-10T02:12:04.841Z,41.00
2017-10-10T02:14:32.285Z,43.90
2017-10-10T02:16:59.765Z,40.73
2017-10-10T02:19:27.242Z,45.83
2017-10-10T02:21:54.741Z,36.27
2017-10-10T02:24:23.685Z,38.55
2017-10-10T02:26:51.161Z,41.43
2017-10-10T02:29:18.650Z,42.67
2017-10-10T02:31:46.186Z,46.50
2017-10-10T02:34:13.637Z,35.20
2017-10-10T02:36:41.116Z,42.87
2017-10-10T02:39:08.694Z,33.67
2017-10-10T02:41:36.161Z,33.90
2017-10-10T02:44:03.625Z,52.23
2017-10-10T02:46:31.121Z,38.27
2017-10-10T02:48:58.585Z,42.13
2017-10-10T02:51:26.046Z,44.37
2017-10-10T02:53:54.406Z,40.50
2017-10-10T02:56:21.865Z,38.63
2017-10-10T02:58:49.363Z,36.10
2017-10-10T03:01:17.590Z,41.90
2017-10-10T03:03:45.071Z,40.57
2017-10-10T03:06:12.568Z,33.20
2017-10-10T03:08:40.030Z,42.40
2017-10-10T03:11:07.491Z,35.90
2017-10-10T03:13:35.056Z,36.30
2017-10-10T03:16:02.513Z,36.90
2017-10-10T03:18:29.979Z,32.23
2017-10-10T03:20:57.457Z,42.60
2017-10-10T03:23:24.921Z,36.40
2017-10-10T03:25:52.408Z,33.83
2017-10-10T03:28:20.637Z,34.53
2017-10-10T03:30:48.287Z,39.43
2017-10-10T03:33:16.584Z,39.77
2017-10-10T03:35:44.045Z,35.03
2017-10-10T03:38:11.515Z,27.30
2017-10-10T03:40:38.981Z,41.77
2017-10-10T03:43:06.473Z,41.37
2017-10-10T03:45:34.701Z,46.83
2017-10-10T03:48:02.161Z,49.70
2017-10-10T03:50:29.653Z,40.77
2017-10-10T03:52:57.877Z,39.57
2017-10-10T03:55:25.333Z,48.53
2017-10-10T03:57:52.818Z,45.30
2017-10-10T04:00:20.310Z,50.30
2017-10-10T04:02:48.577Z,46.83
2017-10-10T04:05:16.053Z,52.53
2017-10-10T04:07:44.290Z,52.30
2017-10-10T04:10:11.766Z,25.20
2017-10-10T04:12:39.220Z,42.30
2017-10-10T04:15:06.701Z,50.63
2017-10-10T04:17:34.957Z,46.80
2017-10-10T04:20:02.423Z,45.13
2017-10-10T04:22:30.646Z,46.43
2017-10-10T04:24:58.122Z,55.57
2017-10-10T04:27:25.583Z,56.73
2017-10-10T04:29:53.078Z,56.20
2017-10-10T04:32:21.331Z,59.40
2017-10-10T04:34:48.790Z,57.43
2017-10-10T04:37:16.245Z,56.23
2017-10-10T04:39:43.738Z,58.83
2017-10-10T04:42:11.991Z,61.93
2017-10-10T04:44:39.450Z,57.50
2017-10-10T04:47:06.905Z,83.57
2017-10-10T04:49:34.381Z,59.73
2017-10-10T04:52:02.642Z,66.53
2017-10-10T04:54:30.098Z,71.77
2017-10-10T04:56:57.564Z,76.63
2017-10-10T04:59:25.070Z,53.67
2017-10-10T05:01:52.529Z,70.70
2017-10-10T05:04:19.989Z,64.37
2017-10-10T05:06:47.465Z,67.37
2017-10-10T05:09:14.913Z,77.90
2017-10-10T05:11:42.410Z,74.43
2017-10-10T05:14:09.878Z,92.67
2017-10-10T05:16:37.344Z,83.97
2017-10-10T05:19:04.876Z,86.90
2017-10-10T05:21:32.364Z,84.83
2017-10-10T05:24:00.585Z,82.10
2017-10-10T05:26:28.073Z,112.63
2017-10-10T05:29:00.482Z,94.83
2017-10-10T05:31:27.938Z,88.83
2017-10-10T05:33:55.425Z,87.63
2017-10-10T05:36:22.890Z,73.90
2017-10-10T05:38:50.379Z,72.23
2017-10-10T05:41:17.860Z,93.67
2017-10-10T05:43:45.353Z,97.30
2017-10-10T05:46:12.820Z,63.80
2017-10-10T05:48:40.278Z,79.00
2017-10-10T05:51:07.757Z,100.47
2017-10-10T05:53:35.225Z,79.30
2017-10-10T05:56:02.894Z,113.00
2017-10-10T05:58:30.774Z,121.07
2017-10-10T06:00:59.265Z,69.37
2017-10-10T06:03:27.459Z,131.70
2017-10-10T06:05:55.241Z,98.50
2017-10-10T06:08:22.890Z,90.13
2017-10-10T06:10:50.659Z,108.07
2017-10-10T06:13:18.382Z,100.53
2017-10-10T06:15:46.065Z,102.27
2017-10-10T06:18:14.491Z,106.37
2017-10-10T06:20:42.140Z,105.90
2017-10-10T06:23:09.742Z,82.17
2017-10-10T06:25:37.470Z,94.93
2017-10-10T06:28:05.235Z,86.53
2017-10-10T06:30:33.005Z,87.33
2017-10-10T06:33:00.725Z,82.33
2017-10-10T06:35:28.437Z,75.00
2017-10-10T06:37:56.920Z,93.20
2017-10-10T06:40:24.596Z,78.67
2017-10-10T06:42:52.196Z,66.53
2017-10-10T06:45:20.603Z,78.07
2017-10-10T06:47:48.088Z,74.72
2017-10-10T06:50:15.793Z,73.80
2017-10-10T06:52:44.046Z,72.10
2017-10-10T06:55:11.720Z,68.03
2017-10-10T06:57:39.214Z,58.67
2017-10-10T07:00:06.908Z,79.73
2017-10-10T07:02:34.578Z,77.80
2017-10-10T07:05:02.238Z,59.33
2017-10-10T07:07:29.921Z,76.63
2017-10-10T07:09:58.644Z,61.40
2017-10-10T07:12:26.307Z,53.47
2017-10-10T07:14:54.082Z,48.87
2017-10-10T07:17:21.710Z,57.53
2017-10-10T07:19:50.293Z,87.90
2017-10-10T07:22:17.927Z,66.40
2017-10-10T07:24:45.707Z,49.80
2017-10-10T07:27:13.468Z,62.70
2017-10-10T07:29:41.060Z,84.30
2017-10-10T07:32:09.444Z,69.87
2017-10-10T07:34:37.886Z,59.73
2017-10-10T07:37:05.673Z,45.90
2017-10-10T07:39:33.424Z,59.03
2017-10-10T07:42:01.079Z,51.13
2017-10-10T07:44:28.978Z,58.00
2017-10-10T07:46:56.734Z,44.00
2017-10-10T07:49:24.384Z,47.50
2017-10-10T07:51:52.193Z,55.67
2017-10-10T07:54:20.681Z,54.97
2017-10-10T07:56:48.355Z,67.67
2017-10-10T07:59:16.085Z,53.00
2017-10-10T08:01:43.719Z,58.00
2017-10-10T08:04:11.379Z,55.97
2017-10-10T08:06:39.117Z,27.70
2017-10-10T08:09:06.779Z,50.67
2017-10-10T08:11:34.348Z,51.30
2017-10-10T08:14:02.066Z,50.53
2017-10-10T08:16:29.809Z,28.47
2017-10-10T08:18:57.629Z,34.10
2017-10-10T08:21:25.270Z,38.00
2017-10-10T08:23:52.932Z,40.10
2017-10-10T08:26:20.810Z,41.37
2017-10-10T08:28:48.531Z,34.10
2017-10-10T08:31:16.280Z,39.07
2017-10-10T08:33:43.944Z,40.40
2017-10-10T08:36:11.485Z,28.80
2017-10-10T08:38:39.147Z,33.20
2017-10-10T08:41:06.847Z,38.77
2017-10-10T08:43:34.591Z,40.87
2017-10-10T08:46:02.404Z,39.47
2017-10-10T08:48:31.002Z,40.33
2017-10-10T08:50:58.580Z,35.60
2017-10-10T08:53:26.409Z,32.30
2017-10-10T08:55:54.819Z,33.20
2017-10-10T08:58:22.518Z,25.20
2017-10-10T09:00:50.335Z,31.43
2017-10-10T09:03:18.058Z,22.97
2017-10-10T09:05:45.719Z,33.93
2017-10-10T09:08:13.487Z,29.20
2017-10-10T09:10:41.240Z,28.50
2017-10-10T09:13:08.982Z,31.00
2017-10-10T09:15:36.702Z,21.73
2017-10-10T09:18:05.177Z,34.77
2017-10-10T09:20:33.014Z,27.47
2017-10-10T09:23:00.724Z,27.57
2017-10-10T09:25:28.364Z,34.57
2017-10-10T09:27:56.111Z,29.67
2017-10-10T09:30:23.757Z,24.93
2017-10-10T09:32:51.543Z,34.13
2017-10-10T09:35:19.241Z,45.17
2017-10-10T09:37:46.963Z,27.27
2017-10-10T09:40:15.404Z,28.20
2017-10-10T09:42:43.087Z,30.13
2017-10-10T09:45:10.752Z,33.23
2017-10-10T09:47:38.422Z,34.20
2017-10-10T09:50:06.016Z,24.60
2017-10-10T09:52:33.717Z,36.73
2017-10-10T09:55:01.361Z,34.43
2017-10-10T09:57:29.118Z,37.90
2017-10-10T09:59:57.622Z,36.27
2017-10-10T10:02:25.262Z,31.53
2017-10-10T10:04:53.717Z,33.77
2017-10-10T10:07:23.349Z,33.40
2017-10-10T10:09:51.332Z,35.00
2017-10-10T10:12:19.815Z,29.37
2017-10-10T10:14:48.330Z,26.97
2017-10-10T10:17:16.112Z,30.03
2017-10-10T10:19:43.849Z,32.13
2017-10-10T10:22:11.513Z,27.47
2017-10-10T10:24:39.200Z,31.10
2017-10-10T10:27:07.054Z,32.80
2017-10-10T10:29:34.756Z,30.03
2017-10-10T10:32:02.497Z,21.87
2017-10-10T10:34:30.170Z,18.97
2017-10-10T10:36:57.833Z,22.43
2017-10-10T10:39:25.592Z,19.60
2017-10-10T10:41:54.101Z,18.58
2017-10-10T10:44:21.716Z,15.33
2017-10-10T10:46:49.499Z,20.20
2017-10-10T10:49:17.145Z,18.10
2017-10-10T10:51:44.905Z,17.77
2017-10-10T10:54:12.499Z,28.13
2017-10-10T10:56:40.258Z,27.33
2017-10-10T10:59:08.047Z,21.83
2017-10-10T11:01:35.673Z,23.10
2017-10-10T11:04:03.440Z,19.47
2017-10-10T11:06:31.064Z,21.33
2017-10-10T11:08:59.553Z,26.53
2017-10-10T11:11:27.183Z,16.70
2017-10-10T11:13:54.850Z,23.67
2017-10-10T11:16:22.554Z,30.10
2017-10-10T11:18:50.273Z,26.20
2017-10-10T11:21:17.996Z,33.50
2017-10-10T11:23:45.707Z,30.10
2017-10-10T11:26:14.095Z,29.60
2017-10-10T11:28:41.756Z,28.03
2017-10-10T11:31:10.138Z,26.60
2017-10-10T11:33:37.830Z,28.40
2017-10-10T11:36:05.635Z,35.80
2017-10-10T11:38:33.385Z,32.37
2017-10-10T11:41:01.128Z,30.70
2017-10-10T11:43:28.804Z,36.03
2017-10-10T11:45:56.578Z,36.80
2017-10-10T11:48:24.193Z,30.13
2017-10-10T11:50:52.082Z,36.67
2017-10-10T11:53:19.747Z,40.23
2017-10-10T11:55:47.364Z,31.63
2017-10-10T11:58:14.950Z,28.77
2017-10-10T12:00:42.648Z,33.60
2017-10-10T12:03:10.386Z,33.07
2017-10-10T12:05:38.041Z,31.33
2017-10-10T12:08:05.766Z,31.67
2017-10-10T12:10:33.831Z,37.87
2017-10-10T12:13:01.541Z,31.77
2017-10-10T12:15:29.961Z,33.50
2017-10-10T12:17:57.642Z,29.80
2017-10-10T12:20:25.303Z,30.87
2017-10-10T12:22:52.960Z,29.33
2017-10-10T12:25:20.745Z,33.03
2017-10-10T12:27:48.379Z,32.90
2017-10-10T12:30:16.195Z,30.67
2017-10-10T12:32:44.703Z,35.20
2017-10-10T12:35:12.285Z,33.17
2017-10-10T12:37:39.978Z,28.47
2017-10-10T12:40:07.732Z,33.73
2017-10-10T12:42:35.485Z,35.40
2017-10-10T12:45:03.242Z,36.33
2017-10-10T12:47:30.858Z,30.77
2017-10-10T12:49:59.247Z,36.73
2017-10-10T12:52:26.963Z,30.10
2017-10-10T12:54:55.465Z,37.50
2017-10-10T12:57:23.950Z,36.70
2017-10-10T12:59:51.594Z,38.20
2017-10-10T13:02:19.284Z,31.70
2017-10-10T13:04:47.789Z,33.83
2017-10-10T13:07:15.533Z,26.50
2017-10-10T13:09:43.238Z,28.03
2017-10-10T13:12:10.932Z,30.27
2017-10-10T13:14:38.581Z,35.13
2017-10-10T13:17:06.330Z,32.10
2017-10-10T13:19:34.982Z,31.00
2017-10-10T13:22:03.512Z,41.83
2017-10-10T13:24:31.351Z,38.80
2017-10-10T13:26:59.027Z,31.27
2017-10-10T13:29:26.697Z,24.67
2017-10-10T13:31:54.418Z,32.40
2017-10-10T13:34:22.157Z,30.70
2017-10-10T13:36:49.865Z,25.33
2017-10-10T13:39:17.680Z,26.97
2017-10-10T13:41:45.461Z,40.67
2017-10-10T13:44:13.106Z,30.43
2017-10-10T13:46:41.063Z,34.60
2017-10-10T13:49:08.659Z,21.47
2017-10-10T13:51:36.488Z,22.73
2017-10-10T13:54:04.189Z,27.63
2017-10-10T13:56:32.645Z,21.57
2017-10-10T13:59:00.254Z,25.67
2017-10-10T14:01:27.792Z,22.53
2017-10-10T14:03:55.550Z,31.33
2017-10-10T14:06:23.263Z,23.87
2017-10-10T14:08:50.936Z,28.37
2017-10-10T14:11:18.664Z,25.10
2017-10-10T14:13:46.371Z,41.37
2017-10-10T14:16:14.068Z,24.10
2017-10-10T14:18:41.856Z,22.57
2017-10-10T14:21:09.565Z,21.27
2017-10-10T14:23:37.355Z,22.67
2017-10-10T14:26:05.065Z,29.03
2017-10-10T14:28:32.882Z,25.33
2017-10-10T14:31:00.561Z,24.53
2017-10-10T14:33:28.184Z,24.73
2017-10-10T14:35:56.099Z,29.67
2017-10-10T14:38:24.519Z,27.30
2017-10-10T14:40:52.182Z,26.60
2017-10-10T14:43:19.852Z,25.80
2017-10-10T14:45:47.523Z,29.23
2017-10-10T14:48:15.150Z,31.50
2017-10-10T14:50:42.835Z,28.13
2017-10-10T14:53:10.523Z,41.30
2017-10-10T14:55:38.254Z,22.83
2017-10-10T14:58:06.881Z,29.87
2017-10-10T15:00:34.558Z,16.40
2017-10-10T15:03:02.310Z,45.90
2017-10-10T15:05:29.918Z,28.97
2017-10-10T15:07:57.567Z,31.67
2017-10-10T15:10:25.147Z,28.13
2017-10-10T15:12:52.842Z,28.80
2017-10-10T15:15:20.540Z,21.50
2017-10-10T15:17:48.289Z,35.25
2017-10-10T15:20:16.137Z,21.73
2017-10-10T15:22:43.656Z,28.53
2017-10-10T15:25:11.597Z,25.17
2017-10-10T15:27:39.195Z,18.57
2017-10-10T15:30:07.457Z,24.20
2017-10-10T15:32:35.941Z,25.00
2017-10-10T15:35:04.697Z,20.40
2017-10-10T15:37:32.479Z,24.27
2017-10-10T15:40:00.919Z,20.47
2017-10-10T15:42:28.560Z,19.40
2017-10-10T15:44:56.271Z,26.30
2017-10-10T15:47:23.945Z,20.53
2017-10-10T15:49:51.751Z,22.73
2017-10-10T15:52:19.453Z,26.00
2017-10-10T15:54:47.075Z,25.23
2017-10-10T15:57:14.727Z,42.07
2017-10-10T15:59:42.483Z,37.23
2017-10-10T16:02:11.140Z,23.50
2017-10-10T16:04:38.916Z,21.93
2017-10-10T16:07:06.596Z,16.70
2017-10-10T16:09:34.320Z,25.90
2017-10-10T16:12:02.111Z,24.23
2017-10-10T16:14:30.441Z,23.83
2017-10-10T16:16:58.167Z,20.37
2017-10-10T16:19:26.642Z,21.57
2017-10-10T16:21:55.147Z,17.13
2017-10-10T16:24:22.828Z,20.43
2017-10-10T16:26:50.600Z,19.50
2017-10-10T16:29:18.939Z,24.60
2017-10-10T16:31:46.675Z,17.77
2017-10-10T16:34:14.421Z,20.23
2017-10-10T16:36:42.191Z,21.30
2017-10-10T16:39:09.854Z,26.13
2017-10-10T16:41:37.613Z,28.73
2017-10-10T16:44:05.260Z,27.83
2017-10-10T16:46:32.874Z,20.23
2017-10-10T16:49:01.453Z,32.40
2017-10-10T16:51:29.907Z,24.00
2017-10-10T16:53:57.709Z,27.20
2017-10-10T16:56:25.424Z,25.50
2017-10-10T16:58:53.123Z,27.93
2017-10-10T17:01:21.000Z,28.30
2017-10-10T17:03:49.380Z,27.30
2017-10-10T17:06:17.755Z,26.93
2017-10-10T17:08:46.359Z,38.50
2017-10-10T17:11:14.085Z,31.50
2017-10-10T17:13:42.587Z,34.20
2017-10-10T17:16:11.393Z,25.73
2017-10-10T17:18:39.645Z,33.10
2017-10-10T17:21:07.428Z,39.53
2017-10-10T17:23:35.202Z,30.53
2017-10-10T17:26:02.838Z,31.70
2017-10-10T17:28:30.546Z,42.23
2017-10-10T17:30:58.325Z,35.77
2017-10-10T17:33:26.046Z,34.30
2017-10-10T17:35:54.570Z,39.70
2017-10-10T17:38:22.070Z,30.83
2017-10-10T17:40:50.640Z,33.90
2017-10-10T17:43:18.461Z,33.00
2017-10-10T17:45:46.205Z,29.60
2017-10-10T17:48:15.487Z,36.50
2017-10-10T17:50:43.241Z,29.70
2017-10-10T17:53:10.930Z,29.70
2017-10-10T17:55:38.552Z,38.27
2017-10-10T17:58:06.457Z,26.60
2017-10-10T18:00:34.335Z,27.50
2017-10-10T18:03:02.785Z,33.20
2017-10-10T18:05:30.847Z,35.60
2017-10-10T18:07:58.549Z,37.40
2017-10-10T18:10:26.272Z,33.40
2017-10-10T18:12:55.093Z,33.87
2017-10-10T18:15:23.269Z,33.03
2017-10-10T18:17:51.117Z,27.13
2017-10-10T18:20:19.778Z,30.53
2017-10-10T18:22:47.512Z,37.50
2017-10-10T18:25:15.284Z,32.33
2017-10-10T18:27:42.999Z,33.47
2017-10-10T18:30:10.759Z,27.60
2017-10-10T18:32:38.405Z,34.20
2017-10-10T18:35:06.119Z,45.87
2017-10-10T18:37:33.745Z,30.90
2017-10-10T18:40:01.408Z,38.00
2017-10-10T18:42:29.169Z,29.63
2017-10-10T18:44:56.876Z,27.30
2017-10-10T18:47:24.760Z,50.23
2017-10-10T18:49:53.358Z,31.03
2017-10-10T18:52:21.194Z,29.57
2017-10-10T18:54:48.855Z,31.23
2017-10-10T18:57:16.451Z,30.67
2017-10-10T18:59:44.128Z,29.70
2017-10-10T19:02:11.708Z,31.03
2017-10-10T19:04:39.413Z,29.07
2017-10-10T19:07:07.138Z,29.17
2017-10-10T19:09:35.081Z,25.83
2017-10-10T19:12:02.738Z,39.43
2017-10-10T19:14:31.114Z,38.30
2017-10-10T19:16:58.930Z,28.45
2017-10-10T19:19:27.438Z,34.30
2017-10-10T19:21:55.147Z,34.60
2017-10-10T19:24:22.945Z,31.80
2017-10-10T19:26:51.365Z,34.97
2017-10-10T19:29:19.090Z,34.00
2017-10-10T19:31:47.660Z,30.10
2017-10-10T19:34:15.428Z,30.17
2017-10-10T19:36:43.866Z,38.70
2017-10-10T19:39:12.659Z,31.23
2017-10-10T19:41:40.289Z,38.97
2017-10-10T19:44:08.029Z,35.90
2017-10-10T19:46:36.505Z,33.70
2017-10-10T19:49:05.039Z,36.23
2017-10-10T19:51:32.704Z,28.93
2017-10-10T19:54:00.382Z,27.40
2017-10-10T19:56:28.128Z,36.40
2017-10-10T19:58:55.878Z,32.40
2017-10-10T20:01:23.512Z,35.53
2017-10-10T20:03:51.214Z,42.50
2017-10-10T20:06:18.955Z,23.40
2017-10-10T20:08:47.600Z,21.93
2017-10-10T20:11:16.077Z,35.30
2017-10-10T20:13:43.720Z,28.53
2017-10-10T20:16:12.238Z,37.60
2017-10-10T20:18:39.907Z,35.77
2017-10-10T20:21:08.458Z,34.57
2017-10-10T20:23:36.061Z,37.83
2017-10-10T20:26:04.592Z,34.10
2017-10-10T20:28:32.155Z,27.13
2017-10-10T20:30:59.884Z,31.73
2017-10-10T20:33:28.360Z,45.13
2017-10-10T20:35:56.159Z,26.17
2017-10-10T20:38:23.972Z,24.77
2017-10-10T20:40:51.647Z,26.17
2017-10-10T20:43:20.135Z,17.40
2017-10-10T20:45:47.866Z,28.70
2017-10-10T20:48:15.604Z,21.63
2017-10-10T20:50:43.271Z,20.77
2017-10-10T20:53:10.978Z,24.37
2017-10-10T20:55:38.734Z,16.33
2017-10-10T20:58:06.521Z,25.90
2017-10-10T21:00:34.129Z,23.77
2017-10-10T21:03:01.918Z,17.00
2017-10-10T21:05:29.620Z,20.93
2017-10-10T21:07:57.335Z,19.07
2017-10-10T21:10:25.010Z,24.63
2017-10-10T21:12:52.757Z,22.60
2017-10-10T21:15:20.252Z,23.90
2017-10-10T21:17:48.687Z,17.60
2017-10-10T21:20:16.358Z,21.97
2017-10-10T21:22:43.945Z,16.70
2017-10-10T21:25:11.580Z,30.33
2017-10-10T21:27:39.418Z,18.33
2017-10-10T21:30:07.190Z,9.77
2017-10-10T21:32:34.933Z,10.90
2017-10-10T21:35:03.366Z,9.00
2017-10-10T21:37:31.076Z,7.23
2017-10-10T21:39:59.509Z,15.70
2017-10-10T21:42:27.210Z,13.73
2017-10-10T21:44:55.602Z,15.00
2017-10-10T21:47:24.027Z,17.90
2017-10-10T21:49:51.714Z,11.63
2017-10-10T21:52:19.368Z,12.43
2017-10-10T21:54:47.080Z,15.93
2017-10-10T21:57:14.757Z,16.43
2017-10-10T21:59:42.505Z,13.70
2017-10-10T22:02:10.050Z,18.03
2017-10-10T22:04:37.732Z,13.47
2017-10-10T22:07:05.445Z,16.83
2017-10-10T22:09:33.099Z,16.07
2017-10-10T22:12:00.916Z,12.43
2017-10-10T22:14:29.454Z,13.50
2017-10-10T22:16:57.091Z,16.57
2017-10-10T22:19:24.896Z,14.80
2017-10-10T22:21:52.592Z,14.03
2017-10-10T22:24:20.386Z,12.20
2017-10-10T22:26:48.054Z,14.73
2017-10-10T22:29:15.806Z,12.47
2017-10-10T22:31:43.559Z,18.27
2017-10-10T22:34:11.953Z,15.53
2017-10-10T22:36:39.640Z,15.47
2017-10-10T22:39:08.094Z,15.63
2017-10-10T22:41:35.749Z,20.03
2017-10-10T22:44:03.675Z,10.63
2017-10-10T22:46:32.145Z,9.60
2017-10-10T22:48:59.805Z,11.20
2017-10-10T22:51:27.647Z,11.87
2017-10-10T22:53:55.216Z,15.03
2017-10-10T22:56:22.960Z,11.20
2017-10-10T22:58:50.727Z,14.10
2017-10-10T23:01:18.435Z,14.97
2017-10-10T23:03:46.195Z,15.17
2017-10-10T23:06:13.834Z,13.73
2017-10-10T23:08:41.699Z,14.23
2017-10-10T23:11:09.412Z,18.90
2017-10-10T23:13:37.970Z,10.17
2017-10-10T23:16:05.665Z,26.33
2017-10-10T23:18:34.248Z,12.73
2017-10-10T23:21:02.677Z,15.60
2017-10-10T23:23:30.490Z,15.10
2017-10-10T23:25:58.099Z,16.30
2017-10-10T23:28:25.758Z,14.93
2017-10-10T23:30:53.449Z,16.73
2017-10-10T23:33:21.044Z,16.80
2017-10-10T23:35:49.508Z,20.40
2017-10-10T23:38:17.242Z,20.53
2017-10-10T23:40:45.823Z,19.03
2017-10-10T23:43:13.516Z,11.00
2017-10-10T23:45:41.173Z,17.50
2017-10-10T23:48:08.948Z,19.70
2017-10-10T23:50:36.785Z,21.63
2017-10-10T23:53:04.623Z,23.17
2017-10-10T23:55:32.297Z,17.20
2017-10-10T23:57:59.996Z,21.33
